createdAt,value
2018-11-10T00:02:16.536Z,15.80
2018-11-10T00:04:45.845Z,17.70
2018-11-10T00:07:15.251Z,16.73
2018-11-10T00:09:44.519Z,16.93
2018-11-10T00:12:13.811Z,16.63
2018-11-10T00:14:43.109Z,16.80
2018-11-10T00:17:12.436Z,16.23
2018-11-10T00:19:41.747Z,17.37
2018-11-10T00:22:11.108Z,17.40
2018-11-10T00:24:40.382Z,17.20
2018-11-10T00:27:09.664Z,17.87
2018-11-10T00:29:38.970Z,17.03
2018-11-10T00:32:08.295Z,18.27
2018-11-10T00:34:37.619Z,16.47
2018-11-10T00:37:07.064Z,16.47
2018-11-10T00:39:36.409Z,17.10
2018-11-10T00:42:06.214Z,16.30
2018-11-10T00:44:35.553Z,16.40
2018-11-10T00:47:05.088Z,17.00
2018-11-10T00:49:34.508Z,15.83
2018-11-10T00:52:03.807Z,16.60
2018-11-10T00:54:33.074Z,16.07
2018-11-10T00:57:02.378Z,16.83
2018-11-10T00:59:31.690Z,17.67
2018-11-10T01:02:01.006Z,17.20
2018-11-10T01:04:30.308Z,17.40
2018-11-10T01:06:59.617Z,17.03
2018-11-10T01:09:28.906Z,17.07
2018-11-10T01:11:58.219Z,17.47
2018-11-10T01:14:27.527Z,16.93
2018-11-10T01:16:56.815Z,16.00
2018-11-10T01:19:26.129Z,17.17
2018-11-10T01:21:55.403Z,15.20
2018-11-10T01:24:24.734Z,14.80
2018-11-10T01:26:54.013Z,16.10
2018-11-10T01:29:23.326Z,14.67
2018-11-10T01:31:52.607Z,15.20
2018-11-10T01:34:22.023Z,15.13
2018-11-10T01:36:51.366Z,15.00
2018-11-10T01:39:20.621Z,15.53
2018-11-10T01:41:49.900Z,15.60
2018-11-10T01:44:19.216Z,14.93
2018-11-10T01:46:48.470Z,14.93
2018-11-10T01:49:17.817Z,15.87
2018-11-10T01:51:47.118Z,15.33
2018-11-10T01:54:16.429Z,15.53
2018-11-10T01:56:45.751Z,14.87
2018-11-10T01:59:15.018Z,14.93
2018-11-10T02:01:44.334Z,15.47
2018-11-10T02:04:13.675Z,14.63
2018-11-10T02:06:43.020Z,14.80
2018-11-10T02:09:12.283Z,15.37
2018-11-10T02:11:41.588Z,15.47
2018-11-10T02:14:10.842Z,15.20
2018-11-10T02:16:40.135Z,14.77
2018-11-10T02:19:09.436Z,14.67
2018-11-10T02:21:38.759Z,12.90
2018-11-10T02:24:08.080Z,13.47
2018-11-10T02:26:37.503Z,13.97
2018-11-10T02:29:06.756Z,15.20
2018-11-10T02:31:36.059Z,14.20
2018-11-10T02:34:05.715Z,15.60
2018-11-10T02:36:35.030Z,14.30
2018-11-10T02:39:05.880Z,15.87
2018-11-10T02:41:35.382Z,14.50
2018-11-10T02:44:04.736Z,15.20
2018-11-10T02:46:34.026Z,15.60
2018-11-10T02:49:03.410Z,15.13
2018-11-10T02:51:32.667Z,14.50
2018-11-10T02:54:01.978Z,16.17
2018-11-10T02:56:31.296Z,14.77
2018-11-10T02:59:00.562Z,15.57
2018-11-10T03:01:29.845Z,15.33
2018-11-10T03:03:59.186Z,15.93
2018-11-10T03:06:28.463Z,15.60
2018-11-10T03:08:57.765Z,15.57
2018-11-10T03:11:27.082Z,16.53
2018-11-10T03:13:56.369Z,15.60
2018-11-10T03:16:25.702Z,16.53
2018-11-10T03:18:54.963Z,16.83
2018-11-10T03:21:24.275Z,16.87
2018-11-10T03:23:53.597Z,17.93
2018-11-10T03:26:22.905Z,17.70
2018-11-10T03:28:54.529Z,17.13
2018-11-10T03:31:23.908Z,17.53
2018-11-10T03:33:53.207Z,17.50
2018-11-10T03:36:22.622Z,17.37
2018-11-10T03:38:51.961Z,16.93
2018-11-10T03:41:21.265Z,18.00
2018-11-10T03:43:50.493Z,17.17
2018-11-10T03:46:19.831Z,18.13
2018-11-10T03:48:49.179Z,19.07
2018-11-10T03:51:18.434Z,18.33
2018-11-10T03:53:47.736Z,18.10
2018-11-10T03:56:17.003Z,18.80
2018-11-10T03:58:46.278Z,19.33
2018-11-10T04:01:15.637Z,17.50
2018-11-10T04:03:44.898Z,19.33
2018-11-10T04:06:14.249Z,18.47
2018-11-10T04:08:43.522Z,17.90
2018-11-10T04:11:12.775Z,17.23
2018-11-10T04:13:42.028Z,18.07
2018-11-10T04:16:11.298Z,18.23
2018-11-10T04:18:40.627Z,17.43
2018-11-10T04:21:09.927Z,18.10
2018-11-10T04:23:41.982Z,17.90
2018-11-10T04:26:12.274Z,19.30
2018-11-10T04:28:41.547Z,17.70
2018-11-10T04:31:10.823Z,18.17
2018-11-10T04:33:40.108Z,19.00
2018-11-10T04:36:09.391Z,18.33
2018-11-10T04:38:39.022Z,18.13
2018-11-10T04:41:08.363Z,19.33
2018-11-10T04:43:37.749Z,18.63
2018-11-10T04:46:07.125Z,19.17
2018-11-10T04:48:36.515Z,18.90
2018-11-10T04:51:09.858Z,17.90
2018-11-10T04:53:39.122Z,18.73
2018-11-10T04:56:10.746Z,19.53
2018-11-10T04:58:40.077Z,19.20
2018-11-10T05:01:09.334Z,18.23
2018-11-10T05:03:38.756Z,18.90
2018-11-10T05:06:08.010Z,19.13
2018-11-10T05:08:37.349Z,18.83
2018-11-10T05:11:06.807Z,19.50
2018-11-10T05:13:36.079Z,18.33
2018-11-10T05:16:05.448Z,18.73
2018-11-10T05:18:34.720Z,18.17
2018-11-10T05:21:04.079Z,19.30
2018-11-10T05:23:33.702Z,19.57
2018-11-10T05:26:02.981Z,19.73
2018-11-10T05:28:32.339Z,18.77
2018-11-10T05:31:01.669Z,17.77
2018-11-10T05:33:30.954Z,17.80
2018-11-10T05:36:00.245Z,18.93
2018-11-10T05:38:29.554Z,19.67
2018-11-10T05:40:58.975Z,18.70
2018-11-10T05:43:29.164Z,18.77
2018-11-10T05:45:58.836Z,18.60
2018-11-10T05:48:28.421Z,18.40
2018-11-10T05:50:58.869Z,18.53
2018-11-10T05:53:28.174Z,19.50
2018-11-10T05:55:57.455Z,17.63
2018-11-10T05:58:26.718Z,18.70
2018-11-10T06:00:56.049Z,19.33
2018-11-10T06:03:25.305Z,17.50
2018-11-10T06:05:54.582Z,18.40
2018-11-10T06:08:23.859Z,18.93
2018-11-10T06:10:54.238Z,19.40
2018-11-10T06:13:24.420Z,17.70
2018-11-10T06:15:54.454Z,17.27
2018-11-10T06:18:23.736Z,18.83
2018-11-10T06:20:53.369Z,18.30
2018-11-10T06:23:22.662Z,17.63
2018-11-10T06:25:51.954Z,18.67
2018-11-10T06:28:21.300Z,18.27
2018-11-10T06:30:50.654Z,17.83
2018-11-10T06:33:19.974Z,18.13
2018-11-10T06:35:49.276Z,19.03
2018-11-10T06:38:18.548Z,17.77
2018-11-10T06:40:47.891Z,17.30
2018-11-10T06:43:17.176Z,18.13
2018-11-10T06:45:46.633Z,17.90
2018-11-10T06:48:16.054Z,16.90
2018-11-10T06:50:45.311Z,20.27
2018-11-10T06:53:14.638Z,18.63
2018-11-10T06:55:43.903Z,18.23
2018-11-10T06:58:13.163Z,17.23
2018-11-10T07:00:42.427Z,18.30
2018-11-10T07:03:11.762Z,17.83
2018-11-10T07:05:41.048Z,18.23
2018-11-10T07:08:10.331Z,17.50
2018-11-10T07:10:39.693Z,17.23
2018-11-10T07:13:08.979Z,20.87
2018-11-10T07:15:38.291Z,17.33
2018-11-10T07:18:07.704Z,17.40
2018-11-10T07:20:37.005Z,18.70
2018-11-10T07:23:06.371Z,18.57
2018-11-10T07:25:35.654Z,17.70
2018-11-10T07:28:05.002Z,17.03
2018-11-10T07:30:34.315Z,17.73
2018-11-10T07:33:03.577Z,16.93
2018-11-10T07:35:32.901Z,17.40
2018-11-10T07:38:02.197Z,18.23
2018-11-10T07:40:31.472Z,19.00
2018-11-10T07:43:00.830Z,18.53
2018-11-10T07:45:30.166Z,17.20
2018-11-10T07:47:59.438Z,19.77
2018-11-10T07:50:29.487Z,18.20
2018-11-10T07:52:58.771Z,18.00
2018-11-10T07:55:28.036Z,20.13
2018-11-10T07:57:57.304Z,18.37
2018-11-10T08:00:26.601Z,19.03
2018-11-10T08:02:55.918Z,17.07
2018-11-10T08:05:25.184Z,19.67
2018-11-10T08:07:54.446Z,17.00
2018-11-10T08:10:23.692Z,18.10
2018-11-10T08:12:52.975Z,18.67
2018-11-10T08:15:22.266Z,19.03
2018-11-10T08:17:51.559Z,20.07
2018-11-10T08:20:20.839Z,19.13
2018-11-10T08:22:50.148Z,19.47
2018-11-10T08:25:19.423Z,17.83
2018-11-10T08:27:48.730Z,18.43
2018-11-10T08:30:17.977Z,18.53
2018-11-10T08:32:47.401Z,19.13
2018-11-10T08:35:17.295Z,17.87
2018-11-10T08:37:46.563Z,19.43
2018-11-10T08:40:16.953Z,19.37
2018-11-10T08:42:46.318Z,19.73
2018-11-10T08:45:16.154Z,20.30
2018-11-10T08:47:45.671Z,19.40
2018-11-10T08:50:16.199Z,31.40
2018-11-10T08:52:45.462Z,29.20
2018-11-10T08:55:15.005Z,26.23
2018-11-10T08:57:44.538Z,26.43
2018-11-10T09:00:13.876Z,26.97
2018-11-10T09:02:43.178Z,24.47
2018-11-10T09:05:12.922Z,24.30
2018-11-10T09:07:42.527Z,25.87
2018-11-10T09:10:13.563Z,24.60
2018-11-10T09:12:42.858Z,24.90
2018-11-10T09:15:14.418Z,24.27
2018-11-10T09:17:43.975Z,24.20
2018-11-10T09:20:14.575Z,23.60
2018-11-10T09:22:44.462Z,25.10
2018-11-10T09:25:15.302Z,24.53
2018-11-10T09:27:44.617Z,23.17
2018-11-10T09:30:15.233Z,24.43
2018-11-10T09:32:44.502Z,24.40
2018-11-10T09:35:14.665Z,23.70
2018-11-10T09:37:43.985Z,23.20
2018-11-10T09:40:14.475Z,22.10
2018-11-10T09:42:43.932Z,24.03
2018-11-10T09:45:15.323Z,23.17
2018-11-10T09:47:44.661Z,22.07
2018-11-10T09:50:16.298Z,22.97
2018-11-10T09:52:46.069Z,22.40
2018-11-10T09:55:15.936Z,22.97
2018-11-10T09:57:45.275Z,23.67
2018-11-10T10:00:19.738Z,21.70
2018-11-10T10:02:49.464Z,21.80
2018-11-10T10:05:18.381Z,21.17
2018-11-10T10:07:47.714Z,21.73
2018-11-10T10:10:18.010Z,21.57
2018-11-10T10:12:47.594Z,23.90
2018-11-10T10:15:18.083Z,21.63
2018-11-10T10:17:47.566Z,22.53
2018-11-10T10:20:19.145Z,23.63
2018-11-10T10:22:49.273Z,24.03
2018-11-10T10:25:20.247Z,22.27
2018-11-10T10:27:50.328Z,22.03
2018-11-10T10:30:23.929Z,21.60
2018-11-10T10:32:53.415Z,21.60
2018-11-10T10:35:25.744Z,20.60
2018-11-10T10:37:54.926Z,20.23
2018-11-10T10:40:24.620Z,21.10
2018-11-10T10:42:54.109Z,22.03
2018-11-10T10:45:24.339Z,20.23
2018-11-10T10:47:53.658Z,22.03
2018-11-10T10:50:23.758Z,20.47
2018-11-10T10:52:53.146Z,21.57
2018-11-10T10:55:22.867Z,23.47
2018-11-10T10:57:52.443Z,22.27
2018-11-10T11:00:27.101Z,21.07
2018-11-10T11:02:59.411Z,22.23
2018-11-10T11:05:33.785Z,20.47
2018-11-10T11:08:03.120Z,22.07
2018-11-10T11:10:32.479Z,20.53
2018-11-10T11:13:01.819Z,21.03
2018-11-10T11:15:31.222Z,19.67
2018-11-10T11:18:00.659Z,20.87
2018-11-10T11:20:30.159Z,18.60
2018-11-10T11:22:59.684Z,20.00
2018-11-10T11:25:29.480Z,19.77
2018-11-10T11:27:59.023Z,21.37
2018-11-10T11:30:29.600Z,19.23
2018-11-10T11:32:59.157Z,18.90
2018-11-10T11:35:29.401Z,18.37
2018-11-10T11:37:59.038Z,19.13
2018-11-10T11:40:29.112Z,17.93
2018-11-10T11:42:58.922Z,19.87
2018-11-10T11:45:28.899Z,18.60
2018-11-10T11:47:58.858Z,19.03
2018-11-10T11:50:29.139Z,17.33
2018-11-10T11:52:59.779Z,19.23
2018-11-10T11:55:30.426Z,17.80
2018-11-10T11:58:00.249Z,19.13
2018-11-10T12:00:30.357Z,18.07
2018-11-10T12:03:00.303Z,18.83
2018-11-10T12:05:30.257Z,18.00
2018-11-10T12:08:00.167Z,18.50
2018-11-10T12:10:30.416Z,18.23
2018-11-10T12:13:00.081Z,17.43
2018-11-10T12:15:30.166Z,17.70
2018-11-10T12:18:00.117Z,18.97
2018-11-10T12:20:30.095Z,18.13
2018-11-10T12:23:00.055Z,17.53
2018-11-10T12:25:30.049Z,17.50
2018-11-10T12:28:00.054Z,17.40
2018-11-10T12:30:30.119Z,17.87
2018-11-10T12:33:00.149Z,17.37
2018-11-10T12:35:30.168Z,16.43
2018-11-10T12:38:00.103Z,16.97
2018-11-10T12:40:30.079Z,18.27
2018-11-10T12:43:00.087Z,18.77
2018-11-10T12:45:30.093Z,17.43
2018-11-10T12:48:00.065Z,17.83
2018-11-10T12:50:30.038Z,17.27
2018-11-10T12:52:59.967Z,18.80
2018-11-10T12:55:29.951Z,18.03
2018-11-10T12:57:59.934Z,16.83
2018-11-10T13:00:29.907Z,20.50
2018-11-10T13:02:59.879Z,20.47
2018-11-10T13:05:29.893Z,19.40
2018-11-10T13:07:59.897Z,19.27
2018-11-10T13:10:29.986Z,19.10
2018-11-10T13:13:00.358Z,19.43
2018-11-10T13:15:30.394Z,17.73
2018-11-10T13:18:00.386Z,17.70
2018-11-10T13:20:31.182Z,18.13
2018-11-10T13:23:01.311Z,17.00
2018-11-10T13:25:31.339Z,18.40
2018-11-10T13:28:03.521Z,16.80
2018-11-10T13:30:33.564Z,16.77
2018-11-10T13:33:03.686Z,17.00
2018-11-10T13:35:33.762Z,18.77
2018-11-10T13:38:03.921Z,16.13
2018-11-10T13:40:34.027Z,17.87
2018-11-10T13:43:04.187Z,17.60
2018-11-10T13:45:34.243Z,17.03
2018-11-10T13:48:04.312Z,17.63
2018-11-10T13:50:34.496Z,17.30
2018-11-10T13:53:05.349Z,19.47
2018-11-10T13:55:34.962Z,18.87
2018-11-10T13:58:05.104Z,18.40
2018-11-10T14:00:35.235Z,18.40
2018-11-10T14:03:05.293Z,16.67
2018-11-10T14:05:35.493Z,17.57
2018-11-10T14:08:05.554Z,16.77
2018-11-10T14:10:35.637Z,16.33
2018-11-10T14:13:06.351Z,18.03
2018-11-10T14:15:36.515Z,17.43
2018-11-10T14:18:06.610Z,18.80
2018-11-10T14:20:36.705Z,18.03
2018-11-10T14:23:06.851Z,17.17
2018-11-10T14:25:36.974Z,17.13
2018-11-10T14:28:07.071Z,17.07
2018-11-10T14:30:37.139Z,18.53
2018-11-10T14:33:07.714Z,20.03
2018-11-10T14:35:37.786Z,16.20
2018-11-10T14:38:07.856Z,16.57
2018-11-10T14:40:37.874Z,17.27
2018-11-10T14:43:07.972Z,17.10
2018-11-10T14:45:38.087Z,16.70
2018-11-10T14:48:08.178Z,17.40
2018-11-10T14:50:38.243Z,16.80
2018-11-10T14:53:08.498Z,16.47
2018-11-10T14:55:38.463Z,16.57
2018-11-10T14:58:08.561Z,16.20
2018-11-10T15:00:38.606Z,15.40
2018-11-10T15:03:09.274Z,16.27
2018-11-10T15:05:39.414Z,15.70
2018-11-10T15:08:09.453Z,15.70
2018-11-10T15:10:39.545Z,15.90
2018-11-10T15:13:09.632Z,17.13
2018-11-10T15:15:39.744Z,16.83
2018-11-10T15:18:10.655Z,17.23
2018-11-10T15:20:40.626Z,17.90
2018-11-10T15:23:12.518Z,16.97
2018-11-10T15:25:42.674Z,16.73
2018-11-10T15:28:13.048Z,16.67
2018-11-10T15:30:43.096Z,16.87
2018-11-10T15:33:13.456Z,17.10
2018-11-10T15:35:43.559Z,17.00
2018-11-10T15:38:13.902Z,17.07
2018-11-10T15:40:44.747Z,16.60
2018-11-10T15:43:15.674Z,16.60
2018-11-10T15:45:45.791Z,16.80
2018-11-10T15:48:15.907Z,16.40
2018-11-10T15:50:50.616Z,17.27
2018-11-10T15:53:22.388Z,17.90
2018-11-10T15:55:53.506Z,16.73
2018-11-10T15:58:23.631Z,17.53
2018-11-10T16:00:55.099Z,17.37
2018-11-10T16:03:25.214Z,17.23
2018-11-10T16:05:55.589Z,17.70
2018-11-10T16:08:27.192Z,17.13
2018-11-10T16:10:57.353Z,17.67
2018-11-10T16:13:28.804Z,18.60
2018-11-10T16:15:59.824Z,19.43
2018-11-10T16:18:29.938Z,17.63
2018-11-10T16:21:00.102Z,17.43
2018-11-10T16:23:31.290Z,18.53
2018-11-10T16:26:01.453Z,18.07
2018-11-10T16:28:32.364Z,20.33
2018-11-10T16:31:02.516Z,19.33
2018-11-10T16:33:33.605Z,19.13
2018-11-10T16:36:04.453Z,18.97
2018-11-10T16:38:34.955Z,18.97
2018-11-10T16:41:05.125Z,19.73
2018-11-10T16:43:35.246Z,18.93
2018-11-10T16:46:06.335Z,19.50
2018-11-10T16:48:38.552Z,19.33
2018-11-10T16:51:08.711Z,18.27
2018-11-10T16:53:38.838Z,19.23
2018-11-10T16:56:08.972Z,18.17
2018-11-10T16:58:39.141Z,18.23
2018-11-10T17:01:09.244Z,24.77
2018-11-10T17:03:40.097Z,25.13
2018-11-10T17:06:10.213Z,25.40
2018-11-10T17:08:40.340Z,25.90
2018-11-10T17:11:10.470Z,23.93
2018-11-10T17:13:40.861Z,25.53
2018-11-10T17:16:10.945Z,24.70
2018-11-10T17:18:41.107Z,22.23
2018-11-10T17:21:12.417Z,24.83
2018-11-10T17:23:42.529Z,23.43
2018-11-10T17:26:13.266Z,23.80
2018-11-10T17:28:46.085Z,20.83
2018-11-10T17:31:16.263Z,21.13
2018-11-10T17:33:47.347Z,20.63
2018-11-10T17:36:17.678Z,18.83
2018-11-10T17:38:47.819Z,20.37
2018-11-10T17:41:18.639Z,22.43
2018-11-10T17:43:48.962Z,21.63
2018-11-10T17:46:20.663Z,20.20
2018-11-10T17:48:50.798Z,19.67
2018-11-10T17:51:20.908Z,18.53
2018-11-10T17:53:52.289Z,18.77
2018-11-10T17:56:22.437Z,18.33
2018-11-10T17:58:53.357Z,18.73
2018-11-10T18:01:23.526Z,20.23
2018-11-10T18:03:53.812Z,17.87
2018-11-10T18:06:23.915Z,19.30
2018-11-10T18:08:54.709Z,18.37
2018-11-10T18:11:24.859Z,18.83
2018-11-10T18:13:55.542Z,17.97
2018-11-10T18:16:25.692Z,17.80
2018-11-10T18:18:55.822Z,18.47
2018-11-10T18:21:28.523Z,18.23
2018-11-10T18:23:59.391Z,18.80
2018-11-10T18:26:29.560Z,21.60
2018-11-10T18:29:01.348Z,17.77
2018-11-10T18:31:31.591Z,18.20
2018-11-10T18:34:03.367Z,17.73
2018-11-10T18:36:33.963Z,16.43
2018-11-10T18:39:05.416Z,17.33
2018-11-10T18:41:35.571Z,17.33
2018-11-10T18:44:06.006Z,17.40
2018-11-10T18:46:37.298Z,17.57
2018-11-10T18:49:07.552Z,16.93
2018-11-10T18:51:37.678Z,16.10
2018-11-10T18:54:08.223Z,16.63
2018-11-10T18:56:38.573Z,15.83
2018-11-10T18:59:10.015Z,17.30
2018-11-10T19:01:40.625Z,15.77
2018-11-10T19:04:10.947Z,17.47
2018-11-10T19:06:41.257Z,15.80
2018-11-10T19:09:13.731Z,17.10
2018-11-10T19:11:45.460Z,16.20
2018-11-10T19:14:17.909Z,16.93
2018-11-10T19:16:48.642Z,16.33
2018-11-10T19:19:22.012Z,17.83
2018-11-10T19:21:56.306Z,16.73
2018-11-10T19:24:26.683Z,16.77
2018-11-10T19:26:58.681Z,16.20
2018-11-10T19:29:29.616Z,16.50
2018-11-10T19:32:02.314Z,16.97
2018-11-10T19:34:35.867Z,16.97
2018-11-10T19:37:06.255Z,16.67
2018-11-10T19:39:36.544Z,16.87
2018-11-10T19:42:07.041Z,16.20
2018-11-10T19:44:38.145Z,16.90
2018-11-10T19:47:09.711Z,16.67
2018-11-10T19:49:40.173Z,17.63
2018-11-10T19:52:11.343Z,16.80
2018-11-10T19:54:41.368Z,16.47
2018-11-10T19:57:11.500Z,16.13
2018-11-10T19:59:44.346Z,16.13
2018-11-10T20:02:14.763Z,15.40
2018-11-10T20:04:44.863Z,17.30
2018-11-10T20:07:15.900Z,17.13
2018-11-10T20:09:46.047Z,16.83
2018-11-10T20:12:16.163Z,17.73
2018-11-10T20:14:48.176Z,15.20
2018-11-10T20:17:18.895Z,16.00
2018-11-10T20:19:49.041Z,16.27
2018-11-10T20:22:20.030Z,17.47
2018-11-10T20:24:50.162Z,16.03
2018-11-10T20:27:20.990Z,16.00
2018-11-10T20:29:51.100Z,16.93
2018-11-10T20:32:21.271Z,15.40
2018-11-10T20:34:51.375Z,16.27
2018-11-10T20:37:21.486Z,15.47
2018-11-10T20:39:51.598Z,16.43
2018-11-10T20:42:21.674Z,16.17
2018-11-10T20:44:51.920Z,16.20
2018-11-10T20:47:21.980Z,16.87
2018-11-10T20:49:53.236Z,15.47
2018-11-10T20:52:24.472Z,16.70
2018-11-10T20:54:54.587Z,16.30
2018-11-10T20:57:24.715Z,16.80
2018-11-10T20:59:54.826Z,15.47
2018-11-10T21:02:25.948Z,17.10
2018-11-10T21:04:56.078Z,15.37
2018-11-10T21:07:26.304Z,16.20
2018-11-10T21:09:56.393Z,15.60
2018-11-10T21:12:26.456Z,16.00
2018-11-10T21:14:56.539Z,15.67
2018-11-10T21:17:26.636Z,14.73
2018-11-10T21:19:56.777Z,15.40
2018-11-10T21:22:26.839Z,15.60
2018-11-10T21:24:56.952Z,16.17
2018-11-10T21:27:27.042Z,16.03
2018-11-10T21:29:57.156Z,15.43
2018-11-10T21:32:27.183Z,14.60
2018-11-10T21:34:57.293Z,15.17
2018-11-10T21:37:27.278Z,14.87
2018-11-10T21:39:57.242Z,17.00
2018-11-10T21:42:27.187Z,16.83
2018-11-10T21:44:56.991Z,16.43
2018-11-10T21:47:27.022Z,15.87
2018-11-10T21:49:56.839Z,15.33
2018-11-10T21:53:29.547Z,16.07
2018-11-10T21:55:59.300Z,15.73
2018-11-10T21:58:28.975Z,15.47
2018-11-10T22:00:58.821Z,15.53
2018-11-10T22:03:28.791Z,16.00
2018-11-10T22:05:58.820Z,17.83
2018-11-10T22:08:28.839Z,15.80
2018-11-10T22:10:58.911Z,16.33
2018-11-10T22:13:28.902Z,17.80
2018-11-10T22:15:58.898Z,16.10
2018-11-10T22:18:28.869Z,14.73
2018-11-10T22:20:58.890Z,15.73
2018-11-10T22:23:28.893Z,16.50
2018-11-10T22:25:58.959Z,16.17
2018-11-10T22:28:28.919Z,15.47
2018-11-10T22:30:58.960Z,15.10
2018-11-10T22:33:28.882Z,16.10
2018-11-10T22:35:58.683Z,14.87
2018-11-10T22:38:28.410Z,15.40
2018-11-10T22:40:57.935Z,15.40
2018-11-10T22:43:27.530Z,14.20
2018-11-10T22:45:57.016Z,15.30
2018-11-10T22:48:26.444Z,14.43
2018-11-10T22:50:55.744Z,14.27
2018-11-10T22:53:25.036Z,12.73
2018-11-10T22:55:54.325Z,15.47
2018-11-10T22:58:23.595Z,15.60
2018-11-10T23:00:58.158Z,13.63
2018-11-10T23:03:27.469Z,13.63
2018-11-10T23:05:56.794Z,14.77
2018-11-10T23:08:26.097Z,14.23
2018-11-10T23:10:55.395Z,13.07
2018-11-10T23:13:24.744Z,13.63
2018-11-10T23:15:54.063Z,13.80
2018-11-10T23:18:23.325Z,13.80
2018-11-10T23:20:52.626Z,14.60
2018-11-10T23:23:21.939Z,14.20
2018-11-10T23:25:51.237Z,14.00
2018-11-10T23:28:20.543Z,14.80
2018-11-10T23:30:49.844Z,14.60
2018-11-10T23:33:19.126Z,14.80
2018-11-10T23:35:48.377Z,15.27
2018-11-10T23:38:17.657Z,14.63
2018-11-10T23:40:46.926Z,13.80
2018-11-10T23:43:16.207Z,15.30
2018-11-10T23:45:45.483Z,14.80
2018-11-10T23:48:14.770Z,14.27
2018-11-10T23:50:44.055Z,15.07
2018-11-10T23:53:14.414Z,13.93
2018-11-10T23:55:43.755Z,15.43
2018-11-10T23:58:13.052Z,14.97
